createdAt,value
2023-04-25T00:02:35.960Z,3.20
2023-04-25T00:05:24.435Z,2.80
2023-04-25T00:08:11.327Z,3.07
2023-04-25T00:10:58.788Z,3.20
2023-04-25T00:13:47.628Z,2.80
2023-04-25T00:16:36.064Z,3.10
2023-04-25T00:19:22.847Z,3.90
2023-04-25T00:22:10.944Z,3.43
2023-04-25T00:24:58.373Z,3.00
2023-04-25T00:27:45.020Z,3.27
2023-04-25T00:30:31.913Z,3.27
2023-04-25T00:33:18.778Z,3.23
2023-04-25T00:36:06.126Z,3.30
2023-04-25T00:38:55.150Z,3.40
2023-04-25T00:41:42.348Z,3.60
2023-04-25T00:44:31.432Z,3.27
2023-04-25T00:47:18.490Z,3.40
2023-04-25T00:50:05.514Z,3.33
2023-04-25T00:52:52.829Z,3.03
2023-04-25T00:55:41.230Z,3.00
2023-04-25T00:58:28.124Z,3.10
2023-04-25T01:01:15.362Z,2.90
2023-04-25T01:04:03.658Z,3.27
2023-04-25T01:06:50.594Z,2.77
2023-04-25T01:09:37.775Z,2.50
2023-04-25T01:12:26.140Z,2.67
2023-04-25T01:15:12.829Z,2.73
2023-04-25T01:18:02.133Z,2.80
2023-04-25T01:20:51.623Z,2.93
2023-04-25T01:23:41.091Z,2.57
2023-04-25T01:26:28.029Z,2.70
2023-04-25T01:29:14.941Z,3.00
2023-04-25T01:32:02.303Z,3.17
2023-04-25T01:34:49.048Z,2.90
2023-04-25T01:37:35.949Z,3.10
2023-04-25T01:40:24.491Z,2.70
2023-04-25T01:43:12.125Z,3.03
2023-04-25T01:45:59.336Z,3.17
2023-04-25T01:48:46.750Z,2.63
2023-04-25T01:51:34.042Z,3.57
2023-04-25T01:54:21.354Z,3.40
2023-04-25T01:57:09.919Z,2.50
2023-04-25T02:00:01.599Z,3.10
2023-04-25T02:03:00.899Z,3.73
2023-04-25T02:05:51.442Z,3.10
2023-04-25T02:08:39.355Z,3.33
2023-04-25T02:11:26.052Z,2.57
2023-04-25T02:14:33.411Z,2.83
2023-04-25T02:17:25.064Z,3.07
2023-04-25T02:20:12.883Z,2.57
2023-04-25T02:23:00.325Z,2.70
2023-04-25T02:25:48.514Z,2.80
2023-04-25T02:28:35.058Z,2.57
2023-04-25T02:31:27.133Z,2.60
2023-04-25T02:34:13.621Z,2.73
2023-04-25T02:37:00.335Z,2.50
2023-04-25T02:39:47.253Z,2.80
2023-04-25T02:42:34.575Z,2.50
2023-04-25T02:45:21.607Z,3.10
2023-04-25T02:48:09.715Z,2.50
2023-04-25T02:50:56.202Z,2.10
2023-04-25T02:53:43.014Z,2.90
2023-04-25T02:56:29.613Z,2.87
2023-04-25T02:59:17.440Z,2.73
2023-04-25T03:02:04.300Z,2.83
2023-04-25T03:04:54.372Z,3.00
2023-04-25T03:07:45.025Z,3.50
2023-04-25T03:10:31.954Z,3.13
2023-04-25T03:13:24.692Z,2.97
2023-04-25T03:16:13.023Z,2.90
2023-04-25T03:19:01.758Z,3.00
2023-04-25T03:21:52.547Z,3.20
2023-04-25T03:24:41.681Z,3.20
2023-04-25T03:27:30.568Z,2.23
2023-04-25T03:30:19.359Z,3.23
2023-04-25T03:33:08.391Z,2.80
2023-04-25T03:35:56.928Z,3.43
2023-04-25T03:38:45.219Z,3.20
2023-04-25T03:41:34.386Z,3.03
2023-04-25T03:44:27.612Z,2.90
2023-04-25T03:47:19.143Z,3.57
2023-04-25T03:50:08.221Z,3.30
2023-04-25T03:53:08.085Z,3.20
2023-04-25T03:56:22.402Z,3.10
2023-04-25T03:59:30.513Z,3.33
2023-04-25T04:02:30.028Z,3.30
2023-04-25T04:05:18.996Z,3.33
2023-04-25T04:08:12.520Z,3.73
2023-04-25T04:11:00.726Z,3.10
2023-04-25T04:13:49.190Z,3.27
2023-04-25T04:16:36.367Z,4.17
2023-04-25T04:19:26.573Z,4.07
2023-04-25T04:22:42.425Z,3.43
2023-04-25T04:25:35.428Z,3.20
2023-04-25T04:28:39.010Z,4.13
2023-04-25T04:31:35.281Z,3.10
2023-04-25T04:34:22.068Z,3.80
2023-04-25T04:37:10.892Z,3.03
2023-04-25T04:39:57.730Z,3.67
2023-04-25T04:43:02.044Z,3.83
2023-04-25T04:45:48.747Z,3.40
2023-04-25T04:48:57.364Z,3.30
2023-04-25T04:52:03.649Z,3.33
2023-04-25T04:55:20.182Z,3.47
2023-04-25T04:58:33.243Z,3.43
2023-04-25T05:01:30.953Z,3.17
2023-04-25T05:04:26.337Z,3.57
2023-04-25T05:07:25.250Z,4.30
2023-04-25T05:10:41.069Z,3.37
2023-04-25T05:13:46.717Z,3.20
2023-04-25T05:16:59.866Z,3.23
2023-04-25T05:20:09.943Z,3.90
2023-04-25T05:23:14.946Z,3.67
2023-04-25T05:26:15.727Z,3.40
2023-04-25T05:29:21.922Z,3.20
2023-04-25T05:32:23.051Z,3.13
2023-04-25T05:35:12.310Z,3.17
2023-04-25T05:38:05.077Z,3.47
2023-04-25T05:41:10.848Z,3.33
2023-04-25T05:44:07.316Z,3.60
2023-04-25T05:47:05.570Z,3.10
2023-04-25T05:50:12.583Z,3.03
2023-04-25T05:53:23.163Z,3.73
2023-04-25T05:56:17.073Z,3.47
2023-04-25T05:59:08.149Z,3.27
2023-04-25T06:01:54.675Z,3.17
2023-04-25T06:04:42.539Z,3.33
2023-04-25T06:07:30.996Z,3.33
2023-04-25T06:10:17.747Z,3.50
2023-04-25T06:13:04.681Z,3.17
2023-04-25T06:15:52.876Z,3.17
2023-04-25T06:18:39.725Z,3.60
2023-04-25T06:21:26.910Z,3.43
2023-04-25T06:24:15.115Z,3.13
2023-04-25T06:27:02.079Z,3.00
2023-04-25T06:29:48.944Z,3.23
2023-04-25T06:32:36.265Z,3.43
2023-04-25T06:35:22.728Z,3.70
2023-04-25T06:38:10.054Z,3.90
2023-04-25T06:41:00.091Z,3.83
2023-04-25T06:43:50.434Z,3.70
2023-04-25T06:46:57.273Z,3.77
2023-04-25T06:49:44.063Z,3.40
2023-04-25T06:52:31.476Z,3.60
2023-04-25T06:55:18.388Z,3.50
2023-04-25T06:58:30.947Z,3.30
2023-04-25T07:01:29.568Z,3.83
2023-04-25T07:04:18.797Z,3.67
2023-04-25T07:07:11.693Z,3.90
2023-04-25T07:10:05.938Z,3.50
2023-04-25T07:12:52.506Z,3.13
2023-04-25T07:15:40.867Z,3.30
2023-04-25T07:18:27.872Z,3.30
2023-04-25T07:21:14.961Z,3.20
2023-04-25T07:24:04.264Z,3.40
2023-04-25T07:26:55.111Z,3.23
2023-04-25T07:29:50.916Z,3.53
2023-04-25T07:32:39.211Z,4.00
2023-04-25T07:35:25.917Z,3.30
2023-04-25T07:38:12.619Z,3.00
2023-04-25T07:41:00.009Z,3.60
2023-04-25T07:43:46.782Z,3.30
2023-04-25T07:46:33.555Z,3.67
2023-04-25T07:49:36.806Z,3.80
2023-04-25T07:52:29.452Z,3.50
2023-04-25T07:55:39.477Z,3.90
2023-04-25T07:58:32.321Z,3.77
2023-04-25T08:01:22.714Z,3.50
2023-04-25T08:04:16.685Z,3.87
2023-04-25T08:07:13.369Z,3.60
2023-04-25T08:10:10.317Z,4.43
2023-04-25T08:12:56.846Z,3.63
2023-04-25T08:15:44.286Z,3.37
2023-04-25T08:18:31.920Z,3.97
2023-04-25T08:21:18.761Z,3.20
2023-04-25T08:24:07.268Z,3.60
2023-04-25T08:26:57.831Z,3.70
2023-04-25T08:29:46.817Z,3.17
2023-04-25T08:32:34.903Z,3.57
2023-04-25T08:35:42.226Z,3.50
2023-04-25T08:38:28.868Z,3.70
2023-04-25T08:41:18.438Z,3.70
2023-04-25T08:44:05.854Z,3.90
2023-04-25T08:46:54.338Z,3.77
2023-04-25T08:49:48.325Z,4.57
2023-04-25T08:52:41.884Z,3.83
2023-04-25T08:55:30.208Z,4.07
2023-04-25T08:58:21.230Z,3.63
2023-04-25T09:01:08.540Z,3.80
2023-04-25T09:04:04.439Z,3.30
2023-04-25T09:06:51.662Z,3.80
2023-04-25T09:09:38.401Z,3.77
2023-04-25T09:12:25.240Z,3.50
2023-04-25T09:18:30.236Z,4.53
2023-04-25T09:21:19.224Z,3.33
2023-04-25T09:24:09.542Z,3.50
2023-04-25T09:26:56.311Z,3.50
2023-04-25T09:29:43.714Z,2.93
2023-04-25T09:32:33.703Z,3.30
2023-04-25T09:35:27.118Z,2.93
2023-04-25T09:38:19.281Z,3.57
2023-04-25T09:41:25.326Z,2.70
2023-04-25T09:44:15.355Z,3.13
2023-04-25T09:47:04.673Z,2.90
2023-04-25T09:49:57.157Z,2.77
2023-04-25T09:52:45.329Z,2.87
2023-04-25T09:55:42.682Z,2.30
2023-04-25T09:58:34.239Z,2.60
2023-04-25T10:01:23.823Z,2.30
2023-04-25T10:04:29.195Z,2.03
2023-04-25T10:07:27.707Z,2.27
2023-04-25T10:10:16.287Z,2.40
2023-04-25T10:13:03.158Z,2.97
2023-04-25T10:15:50.250Z,2.40
2023-04-25T10:18:36.794Z,2.30
2023-04-25T10:21:24.799Z,2.40
2023-04-25T10:24:13.058Z,2.30
2023-04-25T10:27:02.856Z,2.00
2023-04-25T10:30:06.333Z,1.70
2023-04-25T10:32:58.419Z,1.97
2023-04-25T10:35:47.613Z,1.93
2023-04-25T10:38:34.438Z,2.27
2023-04-25T10:41:24.034Z,2.47
2023-04-25T10:44:10.832Z,2.30
2023-04-25T10:46:58.987Z,2.03
2023-04-25T10:49:46.044Z,2.30
2023-04-25T10:52:35.156Z,2.20
2023-04-25T10:55:22.429Z,2.80
2023-04-25T10:58:11.217Z,2.47
2023-04-25T11:00:59.250Z,2.27
2023-04-25T11:03:46.565Z,2.27
2023-04-25T11:06:45.324Z,3.40
2023-04-25T11:09:32.276Z,2.43
2023-04-25T11:12:19.046Z,1.77
2023-04-25T11:15:09.029Z,1.90
2023-04-25T11:17:56.074Z,1.90
2023-04-25T11:20:45.707Z,2.20
2023-04-25T11:23:32.654Z,2.30
2023-04-25T11:26:21.474Z,2.30
2023-04-25T11:29:08.345Z,2.27
2023-04-25T11:31:58.021Z,2.20
2023-04-25T11:34:46.730Z,2.10
2023-04-25T11:37:33.505Z,2.40
2023-04-25T11:40:20.555Z,2.00
2023-04-25T11:43:07.417Z,1.77
2023-04-25T11:45:54.380Z,1.67
2023-04-25T11:48:42.790Z,1.87
2023-04-25T11:51:29.375Z,1.80
2023-04-25T11:54:16.615Z,1.83
2023-04-25T11:57:03.223Z,1.90
2023-04-25T11:59:50.220Z,1.87
2023-04-25T12:02:37.715Z,1.87
2023-04-25T12:05:32.715Z,2.27
2023-04-25T12:08:20.372Z,2.27
2023-04-25T12:11:07.319Z,1.97
2023-04-25T12:13:55.017Z,2.20
2023-04-25T12:16:45.568Z,2.60
2023-04-25T12:19:35.702Z,2.20
2023-04-25T12:22:26.055Z,1.97
2023-04-25T12:25:13.311Z,1.77
2023-04-25T12:28:12.164Z,2.00
2023-04-25T12:31:00.695Z,1.53
2023-04-25T12:33:48.896Z,1.60
2023-04-25T12:36:35.504Z,1.80
2023-04-25T12:39:25.625Z,1.87
2023-04-25T12:42:13.749Z,2.10
2023-04-25T12:45:00.381Z,2.23
2023-04-25T12:47:47.309Z,1.90
2023-04-25T12:50:34.164Z,1.90
2023-04-25T12:53:22.714Z,2.27
2023-04-25T12:56:11.019Z,2.33
2023-04-25T12:58:57.864Z,2.33
2023-04-25T13:01:45.507Z,2.13
2023-04-25T13:04:32.373Z,2.07
2023-04-25T13:07:19.155Z,2.10
2023-04-25T13:10:06.878Z,1.83
2023-04-25T13:12:54.613Z,2.40
2023-04-25T13:15:41.496Z,2.20
2023-04-25T13:18:28.307Z,1.93
2023-04-25T13:21:15.186Z,2.30
2023-04-25T13:24:01.848Z,1.97
2023-04-25T13:26:51.099Z,2.37
2023-04-25T13:29:41.444Z,1.90
2023-04-25T13:32:32.384Z,1.97
2023-04-25T13:35:20.271Z,1.63
2023-04-25T13:38:06.880Z,2.37
2023-04-25T13:40:54.490Z,2.47
2023-04-25T13:43:41.359Z,2.23
2023-04-25T13:46:45.445Z,2.60
2023-04-25T13:49:33.470Z,1.90
2023-04-25T13:52:20.713Z,1.73
2023-04-25T13:55:08.274Z,2.23
2023-04-25T13:57:55.032Z,2.20
2023-04-25T14:00:44.476Z,2.20
2023-04-25T14:03:33.225Z,1.80
2023-04-25T14:06:23.888Z,2.20
2023-04-25T14:09:11.408Z,2.73
2023-04-25T14:11:58.423Z,2.07
2023-04-25T14:14:45.557Z,2.10
2023-04-25T14:17:32.817Z,2.13
2023-04-25T14:20:22.405Z,1.80
2023-04-25T14:23:09.001Z,2.33
2023-04-25T14:25:56.029Z,2.40
2023-04-25T14:28:42.805Z,1.77
2023-04-25T14:31:29.518Z,2.27
2023-04-25T14:34:16.553Z,2.07
2023-04-25T14:37:04.818Z,1.90
2023-04-25T14:39:51.237Z,2.00
2023-04-25T14:42:38.234Z,2.10
2023-04-25T14:45:24.952Z,1.60
2023-04-25T14:48:11.804Z,1.60
2023-04-25T14:50:58.621Z,1.90
2023-04-25T14:53:46.880Z,1.50
2023-04-25T14:56:33.557Z,1.40
2023-04-25T14:59:21.027Z,1.67
2023-04-25T15:02:08.171Z,1.90
2023-04-25T15:04:55.512Z,1.80
2023-04-25T15:07:43.763Z,1.27
2023-04-25T15:10:40.720Z,1.20
2023-04-25T15:13:28.017Z,1.60
2023-04-25T15:16:14.631Z,2.10
2023-04-25T15:19:04.830Z,1.57
2023-04-25T15:21:51.886Z,1.60
2023-04-25T15:24:38.783Z,1.50
2023-04-25T15:27:28.129Z,1.30
2023-04-25T15:30:16.665Z,1.20
2023-04-25T15:33:03.904Z,1.47
2023-04-25T15:35:50.216Z,1.50
2023-04-25T15:38:36.881Z,1.53
2023-04-25T15:41:23.832Z,1.57
2023-04-25T15:44:11.984Z,1.73
2023-04-25T15:46:58.706Z,1.23
2023-04-25T15:49:45.611Z,1.33
2023-04-25T15:52:32.275Z,1.97
2023-04-25T15:55:21.674Z,1.93
2023-04-25T15:58:10.062Z,1.40
2023-04-25T16:01:00.331Z,1.50
2023-04-25T16:03:47.428Z,1.47
2023-04-25T16:06:33.940Z,1.30
2023-04-25T16:09:20.932Z,1.37
2023-04-25T16:12:08.686Z,1.13
2023-04-25T16:14:55.422Z,1.30
2023-04-25T16:17:43.556Z,1.20
2023-04-25T16:20:30.348Z,1.13
2023-04-25T16:23:16.966Z,1.37
2023-04-25T16:26:03.770Z,1.27
2023-04-25T16:28:50.538Z,1.30
2023-04-25T16:31:37.585Z,1.30
2023-04-25T16:34:27.551Z,1.57
2023-04-25T16:37:14.168Z,1.73
2023-04-25T16:40:01.146Z,1.37
2023-04-25T16:42:47.557Z,1.43
2023-04-25T16:45:34.387Z,1.40
2023-04-25T16:48:24.314Z,1.67
2023-04-25T16:51:12.221Z,1.33
2023-04-25T16:53:58.947Z,1.43
2023-04-25T16:56:45.682Z,1.47
2023-04-25T16:59:32.629Z,1.87
2023-04-25T17:02:19.164Z,1.23
2023-04-25T17:05:06.436Z,1.33
2023-04-25T17:07:55.086Z,1.57
2023-04-25T17:10:42.022Z,1.70
2023-04-25T17:13:30.867Z,1.50
2023-04-25T17:16:23.050Z,1.13
2023-04-25T17:19:09.895Z,1.50
2023-04-25T17:21:56.640Z,1.83
2023-04-25T17:24:44.711Z,1.60
2023-04-25T17:27:31.150Z,1.27
2023-04-25T17:30:18.038Z,1.50
2023-04-25T17:33:06.700Z,1.30
2023-04-25T17:35:53.252Z,1.30
2023-04-25T17:38:40.057Z,1.40
2023-04-25T17:41:28.355Z,1.60
2023-04-25T17:44:14.851Z,1.77
2023-04-25T17:47:02.554Z,1.63
2023-04-25T17:49:49.389Z,1.60
2023-04-25T17:52:36.315Z,1.90
2023-04-25T17:55:22.853Z,1.77
2023-04-25T17:58:11.317Z,1.67
2023-04-25T18:00:58.024Z,1.50
2023-04-25T18:03:45.758Z,1.60
2023-04-25T18:06:32.957Z,1.20
2023-04-25T18:09:23.527Z,1.60
2023-04-25T18:12:10.364Z,1.17
2023-04-25T18:14:58.555Z,1.77
2023-04-25T18:17:45.536Z,1.40
2023-04-25T18:20:32.788Z,1.40
2023-04-25T18:23:19.133Z,1.67
2023-04-25T18:26:06.374Z,1.70
2023-04-25T18:28:53.286Z,2.27
2023-04-25T18:31:42.453Z,1.60
2023-04-25T18:34:28.896Z,1.57
2023-04-25T18:37:15.885Z,1.60
2023-04-25T18:40:06.328Z,1.43
2023-04-25T18:42:52.888Z,1.57
2023-04-25T18:45:39.693Z,1.70
2023-04-25T18:48:27.744Z,1.67
2023-04-25T18:51:14.666Z,1.47
2023-04-25T18:54:02.257Z,1.73
2023-04-25T18:56:48.629Z,1.93
2023-04-25T18:59:35.693Z,1.57
2023-04-25T19:02:22.895Z,1.63
2023-04-25T19:05:11.695Z,1.40
2023-04-25T19:07:58.428Z,1.27
2023-04-25T19:10:45.352Z,1.53
2023-04-25T19:13:32.005Z,1.57
2023-04-25T19:16:19.505Z,1.63
2023-04-25T19:19:08.738Z,2.03
2023-04-25T19:21:56.770Z,1.40
2023-04-25T19:24:43.234Z,1.93
2023-04-25T19:27:30.164Z,1.77
2023-04-25T19:30:17.375Z,1.60
2023-04-25T19:33:03.799Z,2.00
2023-04-25T19:35:50.393Z,2.00
2023-04-25T19:38:38.587Z,1.90
2023-04-25T19:41:25.391Z,1.80
2023-04-25T19:44:12.218Z,1.73
2023-04-25T19:46:59.851Z,1.60
2023-04-25T19:49:46.292Z,1.63
2023-04-25T19:52:34.737Z,1.70
2023-04-25T19:55:24.735Z,1.27
2023-04-25T19:58:14.880Z,1.67
2023-04-25T20:01:03.035Z,1.70
2023-04-25T20:03:52.214Z,1.50
2023-04-25T20:06:39.801Z,1.70
2023-04-25T20:09:28.139Z,1.60
2023-04-25T20:12:16.412Z,1.73
2023-04-25T20:15:02.952Z,1.60
2023-04-25T20:17:49.764Z,1.60
2023-04-25T20:20:37.471Z,1.93
2023-04-25T20:23:24.125Z,1.40
2023-04-25T20:26:11.427Z,1.73
2023-04-25T20:28:59.465Z,1.70
2023-04-25T20:31:46.393Z,1.57
2023-04-25T20:34:33.002Z,1.60
2023-04-25T20:37:19.860Z,1.50
2023-04-25T20:40:09.850Z,1.93
2023-04-25T20:42:56.703Z,1.87
2023-04-25T20:45:44.888Z,1.50
2023-04-25T20:48:31.599Z,1.63
2023-04-25T20:51:18.537Z,2.13
2023-04-25T20:54:05.304Z,1.50
2023-04-25T20:56:52.493Z,2.40
2023-04-25T20:59:39.277Z,1.60
2023-04-25T21:02:27.483Z,1.43
2023-04-25T21:05:14.257Z,1.67
2023-04-25T21:08:01.122Z,2.30
2023-04-25T21:10:47.931Z,1.80
2023-04-25T21:13:34.730Z,1.80
2023-04-25T21:16:21.372Z,1.70
2023-04-25T21:19:09.637Z,2.30
2023-04-25T21:21:56.088Z,1.93
2023-04-25T21:24:42.870Z,1.50
2023-04-25T21:27:29.664Z,1.90
2023-04-25T21:30:16.995Z,1.80
2023-04-25T21:33:04.495Z,1.63
2023-04-25T21:35:52.933Z,2.10
2023-04-25T21:38:39.741Z,1.70
2023-04-25T21:41:26.737Z,1.70
2023-04-25T21:44:14.616Z,1.80
2023-04-25T21:47:01.278Z,1.80
2023-04-25T21:49:47.892Z,1.70
2023-04-25T21:52:36.737Z,1.60
2023-04-25T21:55:23.516Z,1.73
2023-04-25T21:58:09.913Z,2.00
2023-04-25T22:00:56.804Z,1.70
2023-04-25T22:03:43.402Z,1.63
2023-04-25T22:06:29.985Z,1.70
2023-04-25T22:09:18.044Z,1.77
2023-04-25T22:12:05.352Z,1.63
2023-04-25T22:14:53.241Z,1.57
2023-04-25T22:17:40.427Z,1.80
2023-04-25T22:20:28.063Z,1.80
2023-04-25T22:23:14.619Z,1.57
2023-04-25T22:26:02.784Z,2.00
2023-04-25T22:28:49.917Z,1.63
2023-04-25T22:31:36.857Z,1.70
2023-04-25T22:34:23.498Z,1.90
2023-04-25T22:37:10.427Z,2.07
2023-04-25T22:39:57.030Z,1.80
2023-04-25T22:42:45.276Z,1.57
2023-04-25T22:45:32.719Z,1.60
2023-04-25T22:48:19.715Z,1.83
2023-04-25T22:51:06.756Z,1.83
2023-04-25T22:53:53.803Z,1.50
2023-04-25T22:56:40.469Z,2.47
2023-04-25T22:59:28.676Z,2.00
2023-04-25T23:02:15.654Z,2.03
2023-04-25T23:05:02.685Z,1.87
2023-04-25T23:07:49.482Z,1.60
2023-04-25T23:10:37.065Z,1.93
2023-04-25T23:13:23.567Z,1.63
2023-04-25T23:16:12.621Z,1.67
2023-04-25T23:18:59.769Z,1.87
2023-04-25T23:21:46.940Z,1.60
2023-04-25T23:24:37.637Z,2.50
2023-04-25T23:27:23.976Z,1.80
2023-04-25T23:30:11.613Z,2.17
2023-04-25T23:32:59.501Z,1.73
2023-04-25T23:35:46.150Z,1.93
2023-04-25T23:38:33.555Z,2.00
2023-04-25T23:41:20.362Z,2.10
2023-04-25T23:44:08.963Z,2.10
2023-04-25T23:46:58.063Z,1.33
2023-04-25T23:49:46.689Z,2.13
2023-04-25T23:52:33.585Z,1.90
2023-04-25T23:55:20.466Z,2.00
2023-04-25T23:58:06.891Z,1.93
